sensor_id;sensor_type;location;lat;lon;timestamp;temperature;humidity
23385;DHT22;11865;45.394;10.978;2023-05-10T00:01:55;16.40;99.90
23385;DHT22;11865;45.394;10.978;2023-05-10T00:04:23;16.40;99.90
23385;DHT22;11865;45.394;10.978;2023-05-10T00:06:54;16.40;99.90
23385;DHT22;11865;45.394;10.978;2023-05-10T00:09:22;16.40;99.90
23385;DHT22;11865;45.394;10.978;2023-05-10T00:11:49;16.50;99.90
23385;DHT22;11865;45.394;10.978;2023-05-10T00:14:17;16.50;99.70
23385;DHT22;11865;45.394;10.978;2023-05-10T00:16:44;16.50;99.90
23385;DHT22;11865;45.394;10.978;2023-05-10T00:19:12;16.60;99.80
23385;DHT22;11865;45.394;10.978;2023-05-10T00:21:39;16.50;99.70
23385;DHT22;11865;45.394;10.978;2023-05-10T00:24:07;16.50;99.90
23385;DHT22;11865;45.394;10.978;2023-05-10T00:26:34;16.50;99.30
23385;DHT22;11865;45.394;10.978;2023-05-10T00:29:02;16.50;98.70
23385;DHT22;11865;45.394;10.978;2023-05-10T00:31:30;16.50;98.50
23385;DHT22;11865;45.394;10.978;2023-05-10T00:33:57;16.50;98.30
23385;DHT22;11865;45.394;10.978;2023-05-10T00:36:25;16.50;98.20
23385;DHT22;11865;45.394;10.978;2023-05-10T00:38:53;16.40;98.60
23385;DHT22;11865;45.394;10.978;2023-05-10T00:41:21;16.30;98.70
23385;DHT22;11865;45.394;10.978;2023-05-10T00:43:49;16.20;99.10
23385;DHT22;11865;45.394;10.978;2023-05-10T00:46:17;16.20;98.80
23385;DHT22;11865;45.394;10.978;2023-05-10T00:48:45;16.10;98.90
23385;DHT22;11865;45.394;10.978;2023-05-10T00:51:13;15.90;99.00
23385;DHT22;11865;45.394;10.978;2023-05-10T00:53:41;15.80;99.20
23385;DHT22;11865;45.394;10.978;2023-05-10T00:56:08;15.60;99.70
23385;DHT22;11865;45.394;10.978;2023-05-10T00:58:36;15.50;99.60
23385;DHT22;11865;45.394;10.978;2023-05-10T01:01:04;15.40;99.10
23385;DHT22;11865;45.394;10.978;2023-05-10T01:03:32;15.40;99.30
23385;DHT22;11865;45.394;10.978;2023-05-10T01:06:00;15.40;99.00
23385;DHT22;11865;45.394;10.978;2023-05-10T01:08:28;15.50;98.20
23385;DHT22;11865;45.394;10.978;2023-05-10T01:10:55;15.50;98.10
23385;DHT22;11865;45.394;10.978;2023-05-10T01:13:35;15.50;97.90
23385;DHT22;11865;45.394;10.978;2023-05-10T01:16:04;15.60;97.90
23385;DHT22;11865;45.394;10.978;2023-05-10T01:18:41;15.50;97.90
23385;DHT22;11865;45.394;10.978;2023-05-10T01:21:23;15.60;97.60
23385;DHT22;11865;45.394;10.978;2023-05-10T01:34:42;15.20;98.50
23385;DHT22;11865;45.394;10.978;2023-05-10T01:37:16;15.20;98.40
23385;DHT22;11865;45.394;10.978;2023-05-10T01:40:03;15.30;97.40
23385;DHT22;11865;45.394;10.978;2023-05-10T01:42:53;15.20;98.00
23385;DHT22;11865;45.394;10.978;2023-05-10T01:45:28;15.10;98.10
23385;DHT22;11865;45.394;10.978;2023-05-10T01:48:05;15.10;98.30
23385;DHT22;11865;45.394;10.978;2023-05-10T01:50:36;15.00;97.80
23385;DHT22;11865;45.394;10.978;2023-05-10T01:53:08;15.00;98.10
23385;DHT22;11865;45.394;10.978;2023-05-10T01:55:46;14.90;98.90
23385;DHT22;11865;45.394;10.978;2023-05-10T01:58:17;14.90;99.20
23385;DHT22;11865;45.394;10.978;2023-05-10T02:00:47;14.80;98.80
23385;DHT22;11865;45.394;10.978;2023-05-10T02:03:18;14.70;99.10
23385;DHT22;11865;45.394;10.978;2023-05-10T02:05:48;14.70;99.30
23385;DHT22;11865;45.394;10.978;2023-05-10T02:08:18;14.60;99.90
23385;DHT22;11865;45.394;10.978;2023-05-10T02:10:47;14.60;98.90
23385;DHT22;11865;45.394;10.978;2023-05-10T02:13:16;14.50;99.90
23385;DHT22;11865;45.394;10.978;2023-05-10T02:15:47;14.50;99.90
23385;DHT22;11865;45.394;10.978;2023-05-10T02:18:15;14.50;99.90
23385;DHT22;11865;45.394;10.978;2023-05-10T02:20:45;14.40;99.90
23385;DHT22;11865;45.394;10.978;2023-05-10T02:23:17;14.30;99.90
23385;DHT22;11865;45.394;10.978;2023-05-10T02:25:45;14.20;99.90
23385;DHT22;11865;45.394;10.978;2023-05-10T02:28:14;14.20;99.90
23385;DHT22;11865;45.394;10.978;2023-05-10T02:30:43;14.20;99.90
23385;DHT22;11865;45.394;10.978;2023-05-10T02:33:11;14.00;99.90
23385;DHT22;11865;45.394;10.978;2023-05-10T02:35:39;13.80;99.90
23385;DHT22;11865;45.394;10.978;2023-05-10T02:38:09;13.60;99.90
23385;DHT22;11865;45.394;10.978;2023-05-10T02:40:37;13.50;99.90
23385;DHT22;11865;45.394;10.978;2023-05-10T02:43:06;13.40;99.90
23385;DHT22;11865;45.394;10.978;2023-05-10T02:45:36;13.40;99.90
23385;DHT22;11865;45.394;10.978;2023-05-10T02:48:06;13.20;99.90
23385;DHT22;11865;45.394;10.978;2023-05-10T02:50:34;13.20;99.90
23385;DHT22;11865;45.394;10.978;2023-05-10T02:53:15;13.10;99.90
23385;DHT22;11865;45.394;10.978;2023-05-10T02:55:45;13.10;99.90
23385;DHT22;11865;45.394;10.978;2023-05-10T02:58:14;13.10;99.90
23385;DHT22;11865;45.394;10.978;2023-05-10T03:00:42;13.00;99.90
23385;DHT22;11865;45.394;10.978;2023-05-10T03:03:09;13.00;99.90
23385;DHT22;11865;45.394;10.978;2023-05-10T03:05:37;12.90;99.90
23385;DHT22;11865;45.394;10.978;2023-05-10T03:08:04;12.90;99.90
23385;DHT22;11865;45.394;10.978;2023-05-10T03:10:41;12.90;99.90
23385;DHT22;11865;45.394;10.978;2023-05-10T03:16:29;12.90;99.90
23385;DHT22;11865;45.394;10.978;2023-05-10T03:19:11;12.90;99.90
23385;DHT22;11865;45.394;10.978;2023-05-10T03:21:42;12.80;99.90
23385;DHT22;11865;45.394;10.978;2023-05-10T03:24:12;12.80;99.90
23385;DHT22;11865;45.394;10.978;2023-05-10T03:26:44;12.80;99.90
23385;DHT22;11865;45.394;10.978;2023-05-10T03:29:17;12.80;99.90
23385;DHT22;11865;45.394;10.978;2023-05-10T03:31:45;12.80;99.90
23385;DHT22;11865;45.394;10.978;2023-05-10T03:34:13;12.70;99.90
23385;DHT22;11865;45.394;10.978;2023-05-10T03:36:41;12.60;99.90
23385;DHT22;11865;45.394;10.978;2023-05-10T03:41:37;12.60;99.90
23385;DHT22;11865;45.394;10.978;2023-05-10T03:44:05;12.60;99.90
23385;DHT22;11865;45.394;10.978;2023-05-10T03:46:32;12.70;99.90
23385;DHT22;11865;45.394;10.978;2023-05-10T03:49:00;12.70;99.90
23385;DHT22;11865;45.394;10.978;2023-05-10T03:51:28;12.70;99.90
23385;DHT22;11865;45.394;10.978;2023-05-10T03:53:55;12.70;99.90
23385;DHT22;11865;45.394;10.978;2023-05-10T03:56:23;12.70;99.90
23385;DHT22;11865;45.394;10.978;2023-05-10T03:58:50;12.70;99.90
23385;DHT22;11865;45.394;10.978;2023-05-10T04:01:18;12.70;99.90
23385;DHT22;11865;45.394;10.978;2023-05-10T04:03:46;12.70;99.90
23385;DHT22;11865;45.394;10.978;2023-05-10T04:06:14;12.60;99.90
23385;DHT22;11865;45.394;10.978;2023-05-10T04:08:41;12.60;99.90
23385;DHT22;11865;45.394;10.978;2023-05-10T04:11:11;12.60;99.90
23385;DHT22;11865;45.394;10.978;2023-05-10T04:13:38;12.60;99.90
23385;DHT22;11865;45.394;10.978;2023-05-10T04:16:06;12.60;99.90
23385;DHT22;11865;45.394;10.978;2023-05-10T04:18:33;12.60;99.90
23385;DHT22;11865;45.394;10.978;2023-05-10T04:21:01;12.50;99.90
23385;DHT22;11865;45.394;10.978;2023-05-10T04:23:28;12.40;99.90
23385;DHT22;11865;45.394;10.978;2023-05-10T04:26:00;12.50;99.90
23385;DHT22;11865;45.394;10.978;2023-05-10T04:28:27;12.50;99.90
23385;DHT22;11865;45.394;10.978;2023-05-10T04:31:07;12.50;99.90
23385;DHT22;11865;45.394;10.978;2023-05-10T04:33:35;12.50;99.90
23385;DHT22;11865;45.394;10.978;2023-05-10T04:36:03;12.40;99.90
23385;DHT22;11865;45.394;10.978;2023-05-10T04:38:31;12.40;99.90
23385;DHT22;11865;45.394;10.978;2023-05-10T04:41:08;12.40;99.90
23385;DHT22;11865;45.394;10.978;2023-05-10T04:43:36;12.40;99.90
23385;DHT22;11865;45.394;10.978;2023-05-10T04:46:04;12.40;99.90
23385;DHT22;11865;45.394;10.978;2023-05-10T04:48:32;12.50;99.90
23385;DHT22;11865;45.394;10.978;2023-05-10T04:51:00;12.50;99.90
23385;DHT22;11865;45.394;10.978;2023-05-10T04:53:28;12.50;99.90
23385;DHT22;11865;45.394;10.978;2023-05-10T04:55:55;12.40;99.90
23385;DHT22;11865;45.394;10.978;2023-05-10T04:58:23;12.40;99.90
23385;DHT22;11865;45.394;10.978;2023-05-10T05:00:50;12.40;99.90
23385;DHT22;11865;45.394;10.978;2023-05-10T05:03:18;12.40;99.90
23385;DHT22;11865;45.394;10.978;2023-05-10T05:05:45;12.40;99.90
23385;DHT22;11865;45.394;10.978;2023-05-10T05:08:13;12.30;99.90
23385;DHT22;11865;45.394;10.978;2023-05-10T05:10:40;12.40;99.90
23385;DHT22;11865;45.394;10.978;2023-05-10T05:13:07;12.30;99.90
23385;DHT22;11865;45.394;10.978;2023-05-10T05:15:35;12.40;99.90
23385;DHT22;11865;45.394;10.978;2023-05-10T05:18:03;12.50;99.90
23385;DHT22;11865;45.394;10.978;2023-05-10T05:20:32;12.50;99.90
23385;DHT22;11865;45.394;10.978;2023-05-10T05:23:01;12.60;99.90
23385;DHT22;11865;45.394;10.978;2023-05-10T05:25:28;12.50;99.90
23385;DHT22;11865;45.394;10.978;2023-05-10T05:27:56;12.50;99.90
23385;DHT22;11865;45.394;10.978;2023-05-10T05:30:23;12.50;99.90
23385;DHT22;11865;45.394;10.978;2023-05-10T05:32:51;12.50;99.90
23385;DHT22;11865;45.394;10.978;2023-05-10T05:35:18;12.50;99.90
23385;DHT22;11865;45.394;10.978;2023-05-10T05:37:46;12.40;99.90
23385;DHT22;11865;45.394;10.978;2023-05-10T05:40:13;12.50;99.90
23385;DHT22;11865;45.394;10.978;2023-05-10T05:42:41;12.50;99.90
23385;DHT22;11865;45.394;10.978;2023-05-10T05:45:09;12.50;99.90
23385;DHT22;11865;45.394;10.978;2023-05-10T05:47:40;12.40;99.90
23385;DHT22;11865;45.394;10.978;2023-05-10T05:50:08;12.40;99.90
23385;DHT22;11865;45.394;10.978;2023-05-10T05:52:35;12.40;99.90
23385;DHT22;11865;45.394;10.978;2023-05-10T05:55:03;12.40;99.90
23385;DHT22;11865;45.394;10.978;2023-05-10T05:57:31;12.40;99.90
23385;DHT22;11865;45.394;10.978;2023-05-10T05:59:58;12.30;99.90
23385;DHT22;11865;45.394;10.978;2023-05-10T06:02:26;12.30;99.90
23385;DHT22;11865;45.394;10.978;2023-05-10T06:04:54;12.30;99.90
23385;DHT22;11865;45.394;10.978;2023-05-10T06:07:21;12.30;99.90
23385;DHT22;11865;45.394;10.978;2023-05-10T06:09:49;12.30;99.90
23385;DHT22;11865;45.394;10.978;2023-05-10T06:12:16;12.30;99.90
23385;DHT22;11865;45.394;10.978;2023-05-10T06:14:43;12.20;99.90
23385;DHT22;11865;45.394;10.978;2023-05-10T06:17:11;12.20;99.90
23385;DHT22;11865;45.394;10.978;2023-05-10T06:19:38;12.10;99.90
23385;DHT22;11865;45.394;10.978;2023-05-10T06:22:06;12.00;99.90
23385;DHT22;11865;45.394;10.978;2023-05-10T06:24:33;12.00;99.90
23385;DHT22;11865;45.394;10.978;2023-05-10T06:27:01;12.00;99.90
23385;DHT22;11865;45.394;10.978;2023-05-10T06:29:29;11.90;99.90
23385;DHT22;11865;45.394;10.978;2023-05-10T06:31:56;11.90;99.90
23385;DHT22;11865;45.394;10.978;2023-05-10T06:34:24;12.00;99.90
23385;DHT22;11865;45.394;10.978;2023-05-10T06:36:52;12.10;99.90
23385;DHT22;11865;45.394;10.978;2023-05-10T06:39:19;12.10;99.90
23385;DHT22;11865;45.394;10.978;2023-05-10T06:41:47;12.00;99.90
23385;DHT22;11865;45.394;10.978;2023-05-10T06:44:14;12.00;99.90
23385;DHT22;11865;45.394;10.978;2023-05-10T06:46:41;11.90;99.90
23385;DHT22;11865;45.394;10.978;2023-05-10T06:49:09;11.90;99.90
23385;DHT22;11865;45.394;10.978;2023-05-10T06:51:37;11.90;99.90
23385;DHT22;11865;45.394;10.978;2023-05-10T06:54:04;12.00;99.90
23385;DHT22;11865;45.394;10.978;2023-05-10T06:56:31;12.00;99.90
23385;DHT22;11865;45.394;10.978;2023-05-10T06:58:59;12.00;99.90
23385;DHT22;11865;45.394;10.978;2023-05-10T07:01:27;12.00;99.90
23385;DHT22;11865;45.394;10.978;2023-05-10T07:03:54;12.00;99.90
23385;DHT22;11865;45.394;10.978;2023-05-10T07:06:21;11.80;99.90
23385;DHT22;11865;45.394;10.978;2023-05-10T07:09:00;11.90;99.90
23385;DHT22;11865;45.394;10.978;2023-05-10T07:11:27;11.90;99.90
23385;DHT22;11865;45.394;10.978;2023-05-10T07:13:55;11.90;99.90
23385;DHT22;11865;45.394;10.978;2023-05-10T07:16:22;11.90;99.90
23385;DHT22;11865;45.394;10.978;2023-05-10T07:18:50;12.00;99.90
23385;DHT22;11865;45.394;10.978;2023-05-10T07:21:17;11.90;99.90
23385;DHT22;11865;45.394;10.978;2023-05-10T07:23:45;11.90;99.90
23385;DHT22;11865;45.394;10.978;2023-05-10T07:26:12;12.00;99.90
23385;DHT22;11865;45.394;10.978;2023-05-10T07:28:42;12.00;99.90
23385;DHT22;11865;45.394;10.978;2023-05-10T07:31:09;12.00;99.90
23385;DHT22;11865;45.394;10.978;2023-05-10T07:33:37;12.00;99.90
23385;DHT22;11865;45.394;10.978;2023-05-10T07:36:04;11.90;99.90
23385;DHT22;11865;45.394;10.978;2023-05-10T07:38:32;12.10;99.90
23385;DHT22;11865;45.394;10.978;2023-05-10T07:40:59;12.00;99.90
23385;DHT22;11865;45.394;10.978;2023-05-10T07:43:26;12.00;99.90
23385;DHT22;11865;45.394;10.978;2023-05-10T07:45:54;11.90;99.90
23385;DHT22;11865;45.394;10.978;2023-05-10T07:48:22;12.00;99.90
23385;DHT22;11865;45.394;10.978;2023-05-10T07:50:50;12.10;99.90
23385;DHT22;11865;45.394;10.978;2023-05-10T07:53:17;12.10;99.90
23385;DHT22;11865;45.394;10.978;2023-05-10T07:55:50;12.10;99.90
23385;DHT22;11865;45.394;10.978;2023-05-10T07:58:18;12.20;99.90
23385;DHT22;11865;45.394;10.978;2023-05-10T08:00:45;12.00;99.90
23385;DHT22;11865;45.394;10.978;2023-05-10T08:03:12;12.10;99.90
23385;DHT22;11865;45.394;10.978;2023-05-10T08:05:40;12.00;99.90
23385;DHT22;11865;45.394;10.978;2023-05-10T08:08:08;12.00;99.90
23385;DHT22;11865;45.394;10.978;2023-05-10T08:10:35;12.00;99.90
23385;DHT22;11865;45.394;10.978;2023-05-10T08:13:02;12.00;99.90
23385;DHT22;11865;45.394;10.978;2023-05-10T08:15:30;11.90;99.90
23385;DHT22;11865;45.394;10.978;2023-05-10T08:17:57;11.80;99.90
23385;DHT22;11865;45.394;10.978;2023-05-10T08:20:25;11.80;99.90
23385;DHT22;11865;45.394;10.978;2023-05-10T08:22:52;11.80;99.90
23385;DHT22;11865;45.394;10.978;2023-05-10T08:25:20;11.80;99.90
23385;DHT22;11865;45.394;10.978;2023-05-10T08:27:49;11.80;99.90
23385;DHT22;11865;45.394;10.978;2023-05-10T08:30:16;11.80;99.90
23385;DHT22;11865;45.394;10.978;2023-05-10T08:32:44;11.80;99.90
23385;DHT22;11865;45.394;10.978;2023-05-10T08:35:12;11.70;99.90
23385;DHT22;11865;45.394;10.978;2023-05-10T08:37:39;11.60;99.90
23385;DHT22;11865;45.394;10.978;2023-05-10T08:40:07;11.60;99.90
23385;DHT22;11865;45.394;10.978;2023-05-10T08:42:40;11.60;99.90
23385;DHT22;11865;45.394;10.978;2023-05-10T08:45:08;11.50;99.90
23385;DHT22;11865;45.394;10.978;2023-05-10T08:47:37;11.50;99.90
23385;DHT22;11865;45.394;10.978;2023-05-10T08:50:06;11.50;99.90
23385;DHT22;11865;45.394;10.978;2023-05-10T08:55:04;11.50;99.90
23385;DHT22;11865;45.394;10.978;2023-05-10T08:57:32;11.50;99.90
23385;DHT22;11865;45.394;10.978;2023-05-10T09:00:01;11.60;99.90
23385;DHT22;11865;45.394;10.978;2023-05-10T09:02:28;11.50;99.90
23385;DHT22;11865;45.394;10.978;2023-05-10T09:04:56;11.60;99.90
23385;DHT22;11865;45.394;10.978;2023-05-10T09:07:23;11.60;99.90
23385;DHT22;11865;45.394;10.978;2023-05-10T09:09:52;11.60;99.90
23385;DHT22;11865;45.394;10.978;2023-05-10T09:12:20;11.80;99.90
23385;DHT22;11865;45.394;10.978;2023-05-10T09:14:48;11.60;99.90
23385;DHT22;11865;45.394;10.978;2023-05-10T09:17:17;11.70;99.90
23385;DHT22;11865;45.394;10.978;2023-05-10T09:33:48;11.70;99.90
23385;DHT22;11865;45.394;10.978;2023-05-10T09:36:16;12.30;99.90
23385;DHT22;11865;45.394;10.978;2023-05-10T09:38:51;12.40;99.90
23385;DHT22;11865;45.394;10.978;2023-05-10T09:41:21;12.30;99.90
23385;DHT22;11865;45.394;10.978;2023-05-10T09:43:49;12.20;99.90
23385;DHT22;11865;45.394;10.978;2023-05-10T09:46:22;12.40;99.90
23385;DHT22;11865;45.394;10.978;2023-05-10T09:48:50;12.60;99.90
23385;DHT22;11865;45.394;10.978;2023-05-10T09:51:21;12.50;99.90
23385;DHT22;11865;45.394;10.978;2023-05-10T09:54:11;12.50;99.90
23385;DHT22;11865;45.394;10.978;2023-05-10T09:56:39;12.70;99.90
23385;DHT22;11865;45.394;10.978;2023-05-10T09:59:11;12.50;99.90
23385;DHT22;11865;45.394;10.978;2023-05-10T10:01:39;12.50;99.90
23385;DHT22;11865;45.394;10.978;2023-05-10T10:04:09;12.60;99.90
23385;DHT22;11865;45.394;10.978;2023-05-10T10:06:38;12.70;99.90
23385;DHT22;11865;45.394;10.978;2023-05-10T10:09:06;12.80;99.90
23385;DHT22;11865;45.394;10.978;2023-05-10T10:11:35;12.80;99.90
23385;DHT22;11865;45.394;10.978;2023-05-10T10:14:04;13.00;99.90
23385;DHT22;11865;45.394;10.978;2023-05-10T10:16:32;13.00;99.90
23385;DHT22;11865;45.394;10.978;2023-05-10T10:19:00;13.10;99.90
23385;DHT22;11865;45.394;10.978;2023-05-10T10:21:28;13.00;99.90
23385;DHT22;11865;45.394;10.978;2023-05-10T10:23:55;12.90;99.90
23385;DHT22;11865;45.394;10.978;2023-05-10T10:26:23;13.10;99.90
23385;DHT22;11865;45.394;10.978;2023-05-10T10:29:23;12.90;99.90
23385;DHT22;11865;45.394;10.978;2023-05-10T10:32:03;12.70;99.90
23385;DHT22;11865;45.394;10.978;2023-05-10T10:34:35;12.80;99.90
23385;DHT22;11865;45.394;10.978;2023-05-10T10:37:06;12.90;99.90
23385;DHT22;11865;45.394;10.978;2023-05-10T10:39:33;12.80;99.90
23385;DHT22;11865;45.394;10.978;2023-05-10T10:42:04;12.90;99.90
23385;DHT22;11865;45.394;10.978;2023-05-10T10:49:51;13.30;99.90
23385;DHT22;11865;45.394;10.978;2023-05-10T10:55:11;13.10;99.90
23385;DHT22;11865;45.394;10.978;2023-05-10T10:57:56;13.10;99.90
23385;DHT22;11865;45.394;10.978;2023-05-10T11:00:38;13.10;99.90
23385;DHT22;11865;45.394;10.978;2023-05-10T11:03:12;13.00;99.90
23385;DHT22;11865;45.394;10.978;2023-05-10T11:05:49;13.20;99.90
23385;DHT22;11865;45.394;10.978;2023-05-10T11:08:32;13.20;99.90
23385;DHT22;11865;45.394;10.978;2023-05-10T11:11:05;13.20;99.90
23385;DHT22;11865;45.394;10.978;2023-05-10T11:13:46;13.40;99.90
23385;DHT22;11865;45.394;10.978;2023-05-10T11:16:22;13.30;99.90
23385;DHT22;11865;45.394;10.978;2023-05-10T11:19:08;13.40;99.90
23385;DHT22;11865;45.394;10.978;2023-05-10T11:21:46;13.40;99.90
23385;DHT22;11865;45.394;10.978;2023-05-10T11:24:17;13.40;99.90
23385;DHT22;11865;45.394;10.978;2023-05-10T11:26:45;13.60;99.90
23385;DHT22;11865;45.394;10.978;2023-05-10T11:29:13;13.50;99.90
23385;DHT22;11865;45.394;10.978;2023-05-10T11:31:44;13.40;99.90
23385;DHT22;11865;45.394;10.978;2023-05-10T11:34:23;13.40;99.90
23385;DHT22;11865;45.394;10.978;2023-05-10T11:36:53;13.50;99.90
23385;DHT22;11865;45.394;10.978;2023-05-10T11:39:22;13.50;99.90
23385;DHT22;11865;45.394;10.978;2023-05-10T11:41:52;13.50;99.90
23385;DHT22;11865;45.394;10.978;2023-05-10T11:44:20;13.50;99.90
23385;DHT22;11865;45.394;10.978;2023-05-10T11:46:48;13.40;99.90
23385;DHT22;11865;45.394;10.978;2023-05-10T11:49:17;13.50;99.90
23385;DHT22;11865;45.394;10.978;2023-05-10T11:51:44;13.50;99.90
23385;DHT22;11865;45.394;10.978;2023-05-10T11:54:13;13.50;99.90
23385;DHT22;11865;45.394;10.978;2023-05-10T11:56:41;13.50;99.90
23385;DHT22;11865;45.394;10.978;2023-05-10T11:59:08;13.50;99.90
23385;DHT22;11865;45.394;10.978;2023-05-10T12:01:36;13.60;99.90
23385;DHT22;11865;45.394;10.978;2023-05-10T12:04:03;13.50;99.90
23385;DHT22;11865;45.394;10.978;2023-05-10T12:06:34;13.50;99.90
23385;DHT22;11865;45.394;10.978;2023-05-10T12:09:07;13.40;99.90
23385;DHT22;11865;45.394;10.978;2023-05-10T12:11:40;13.50;99.90
23385;DHT22;11865;45.394;10.978;2023-05-10T12:14:10;13.40;99.90
23385;DHT22;11865;45.394;10.978;2023-05-10T12:16:38;13.60;99.90
23385;DHT22;11865;45.394;10.978;2023-05-10T12:19:05;13.60;99.90
23385;DHT22;11865;45.394;10.978;2023-05-10T12:21:33;13.70;99.90
23385;DHT22;11865;45.394;10.978;2023-05-10T12:24:04;13.60;99.90
23385;DHT22;11865;45.394;10.978;2023-05-10T12:26:35;13.60;99.90
23385;DHT22;11865;45.394;10.978;2023-05-10T12:29:19;13.50;99.90
23385;DHT22;11865;45.394;10.978;2023-05-10T12:31:58;13.40;99.90
23385;DHT22;11865;45.394;10.978;2023-05-10T12:34:26;13.40;99.90
23385;DHT22;11865;45.394;10.978;2023-05-10T12:36:54;13.50;99.90
23385;DHT22;11865;45.394;10.978;2023-05-10T12:39:23;13.60;99.90
23385;DHT22;11865;45.394;10.978;2023-05-10T12:41:51;13.70;99.90
23385;DHT22;11865;45.394;10.978;2023-05-10T12:44:18;13.80;99.90
23385;DHT22;11865;45.394;10.978;2023-05-10T12:46:46;13.90;99.90
23385;DHT22;11865;45.394;10.978;2023-05-10T12:49:13;14.00;99.90
23385;DHT22;11865;45.394;10.978;2023-05-10T12:51:41;14.00;99.90
23385;DHT22;11865;45.394;10.978;2023-05-10T12:54:08;14.10;99.90
23385;DHT22;11865;45.394;10.978;2023-05-10T12:56:36;14.00;99.90
23385;DHT22;11865;45.394;10.978;2023-05-10T12:59:04;14.10;99.90
23385;DHT22;11865;45.394;10.978;2023-05-10T13:01:31;14.10;99.90
23385;DHT22;11865;45.394;10.978;2023-05-10T13:03:59;14.20;99.90
23385;DHT22;11865;45.394;10.978;2023-05-10T13:06:27;14.10;99.90
23385;DHT22;11865;45.394;10.978;2023-05-10T13:08:54;14.00;99.90
23385;DHT22;11865;45.394;10.978;2023-05-10T13:11:22;14.00;99.90
23385;DHT22;11865;45.394;10.978;2023-05-10T13:13:49;14.00;99.90
23385;DHT22;11865;45.394;10.978;2023-05-10T13:16:17;13.90;99.90
23385;DHT22;11865;45.394;10.978;2023-05-10T13:18:44;13.90;99.90
23385;DHT22;11865;45.394;10.978;2023-05-10T13:21:12;14.00;99.90
23385;DHT22;11865;45.394;10.978;2023-05-10T13:23:39;13.90;99.90
23385;DHT22;11865;45.394;10.978;2023-05-10T13:26:07;13.90;99.90
23385;DHT22;11865;45.394;10.978;2023-05-10T13:28:34;13.80;99.90
23385;DHT22;11865;45.394;10.978;2023-05-10T13:31:02;13.80;99.90
23385;DHT22;11865;45.394;10.978;2023-05-10T13:33:29;13.90;99.90
23385;DHT22;11865;45.394;10.978;2023-05-10T13:35:57;14.00;99.90
23385;DHT22;11865;45.394;10.978;2023-05-10T13:38:24;14.00;99.90
23385;DHT22;11865;45.394;10.978;2023-05-10T13:40:51;14.00;99.90
23385;DHT22;11865;45.394;10.978;2023-05-10T13:43:20;14.00;99.90
23385;DHT22;11865;45.394;10.978;2023-05-10T13:45:47;14.00;99.90
23385;DHT22;11865;45.394;10.978;2023-05-10T13:48:15;14.00;99.90
23385;DHT22;11865;45.394;10.978;2023-05-10T13:50:43;14.10;99.90
23385;DHT22;11865;45.394;10.978;2023-05-10T13:53:10;14.10;99.90
23385;DHT22;11865;45.394;10.978;2023-05-10T13:55:38;14.10;99.90
23385;DHT22;11865;45.394;10.978;2023-05-10T13:58:05;14.10;99.90
23385;DHT22;11865;45.394;10.978;2023-05-10T14:00:33;14.10;99.90
23385;DHT22;11865;45.394;10.978;2023-05-10T14:03:00;14.10;99.90
23385;DHT22;11865;45.394;10.978;2023-05-10T14:05:28;16.40;99.90
23385;DHT22;11865;45.394;10.978;2023-05-10T14:07:56;16.20;99.90
23385;DHT22;11865;45.394;10.978;2023-05-10T14:10:24;16.30;99.90
23385;DHT22;11865;45.394;10.978;2023-05-10T14:12:51;16.40;99.90
23385;DHT22;11865;45.394;10.978;2023-05-10T14:15:19;16.40;99.90
23385;DHT22;11865;45.394;10.978;2023-05-10T14:17:47;16.50;99.90
23385;DHT22;11865;45.394;10.978;2023-05-10T14:20:15;16.50;99.90
23385;DHT22;11865;45.394;10.978;2023-05-10T14:22:42;16.60;99.90
23385;DHT22;11865;45.394;10.978;2023-05-10T14:25:10;16.50;99.90
23385;DHT22;11865;45.394;10.978;2023-05-10T14:27:38;16.50;99.90
23385;DHT22;11865;45.394;10.978;2023-05-10T14:30:06;16.50;99.90
23385;DHT22;11865;45.394;10.978;2023-05-10T14:32:34;16.50;99.90
23385;DHT22;11865;45.394;10.978;2023-05-10T14:35:04;16.50;99.90
23385;DHT22;11865;45.394;10.978;2023-05-10T14:37:31;16.50;99.90
23385;DHT22;11865;45.394;10.978;2023-05-10T14:39:59;16.40;99.90
23385;DHT22;11865;45.394;10.978;2023-05-10T14:42:26;16.40;99.90
23385;DHT22;11865;45.394;10.978;2023-05-10T14:44:54;16.50;99.90
23385;DHT22;11865;45.394;10.978;2023-05-10T14:47:21;16.40;99.90
23385;DHT22;11865;45.394;10.978;2023-05-10T14:49:49;16.50;99.90
23385;DHT22;11865;45.394;10.978;2023-05-10T14:52:16;16.50;99.90
23385;DHT22;11865;45.394;10.978;2023-05-10T14:54:44;16.60;99.90
23385;DHT22;11865;45.394;10.978;2023-05-10T14:57:12;16.50;99.90
23385;DHT22;11865;45.394;10.978;2023-05-10T14:59:39;16.40;99.90
23385;DHT22;11865;45.394;10.978;2023-05-10T15:02:07;16.50;99.90
23385;DHT22;11865;45.394;10.978;2023-05-10T15:04:36;16.40;99.90
23385;DHT22;11865;45.394;10.978;2023-05-10T15:07:04;16.60;99.90
23385;DHT22;11865;45.394;10.978;2023-05-10T15:09:31;16.60;99.90
23385;DHT22;11865;45.394;10.978;2023-05-10T15:11:59;16.70;99.90
23385;DHT22;11865;45.394;10.978;2023-05-10T15:14:26;16.60;99.90
23385;DHT22;11865;45.394;10.978;2023-05-10T15:16:54;16.50;99.90
23385;DHT22;11865;45.394;10.978;2023-05-10T15:19:22;16.30;99.90
23385;DHT22;11865;45.394;10.978;2023-05-10T15:21:50;16.50;99.90
23385;DHT22;11865;45.394;10.978;2023-05-10T15:24:17;16.40;99.90
23385;DHT22;11865;45.394;10.978;2023-05-10T15:26:44;16.40;99.90
23385;DHT22;11865;45.394;10.978;2023-05-10T15:29:12;16.30;99.90
23385;DHT22;11865;45.394;10.978;2023-05-10T15:31:47;15.90;99.90
23385;DHT22;11865;45.394;10.978;2023-05-10T15:34:16;16.10;99.90
23385;DHT22;11865;45.394;10.978;2023-05-10T15:36:44;16.10;99.90
23385;DHT22;11865;45.394;10.978;2023-05-10T15:39:12;16.10;99.90
23385;DHT22;11865;45.394;10.978;2023-05-10T15:41:39;16.20;99.90
23385;DHT22;11865;45.394;10.978;2023-05-10T15:44:07;16.20;99.90
23385;DHT22;11865;45.394;10.978;2023-05-10T15:46:34;16.10;99.90
23385;DHT22;11865;45.394;10.978;2023-05-10T15:49:02;16.10;99.90
23385;DHT22;11865;45.394;10.978;2023-05-10T15:51:29;15.90;99.90
23385;DHT22;11865;45.394;10.978;2023-05-10T15:53:57;15.90;99.90
23385;DHT22;11865;45.394;10.978;2023-05-10T15:56:34;15.90;99.90
23385;DHT22;11865;45.394;10.978;2023-05-10T15:59:02;15.90;99.90
23385;DHT22;11865;45.394;10.978;2023-05-10T16:01:30;16.00;99.90
23385;DHT22;11865;45.394;10.978;2023-05-10T16:03:59;15.90;99.90
23385;DHT22;11865;45.394;10.978;2023-05-10T16:06:26;16.10;99.90
23385;DHT22;11865;45.394;10.978;2023-05-10T16:08:54;15.90;99.90